createdAt,value
2022-08-23T00:01:18.579Z,27.93
2022-08-23T00:06:28.786Z,26.53
2022-08-23T00:11:39.500Z,27.23
2022-08-23T00:16:48.717Z,27.67
2022-08-23T00:21:57.225Z,26.97
2022-08-23T00:27:08.216Z,26.93
2022-08-23T00:32:18.528Z,27.03
2022-08-23T00:37:26.621Z,25.83
2022-08-23T00:42:39.558Z,24.63
2022-08-23T00:47:47.553Z,24.93
2022-08-23T00:52:58.915Z,23.33
2022-08-23T00:58:06.741Z,21.77
2022-08-23T01:03:14.925Z,20.60
2022-08-23T01:08:25.702Z,20.50
2022-08-23T01:13:37.416Z,18.83
2022-08-23T01:18:45.382Z,18.20
2022-08-23T01:23:57.277Z,17.80
2022-08-23T01:29:07.029Z,15.67
2022-08-23T01:34:16.528Z,15.27
2022-08-23T01:39:24.391Z,16.60
2022-08-23T01:44:33.190Z,18.90
2022-08-23T01:49:41.070Z,18.63
2022-08-23T01:54:53.587Z,20.10
2022-08-23T02:00:18.886Z,23.20
2022-08-23T02:05:42.989Z,21.87
2022-08-23T02:10:51.171Z,24.53
2022-08-23T02:16:00.221Z,20.73
2022-08-23T02:26:17.145Z,20.90
2022-08-23T02:31:26.574Z,18.93
2022-08-23T02:36:35.049Z,20.90
2022-08-23T02:41:42.907Z,23.13
2022-08-23T02:46:51.234Z,24.50
2022-08-23T02:51:59.128Z,23.73
2022-08-23T02:57:07.437Z,21.20
2022-08-23T03:02:15.365Z,21.77
2022-08-23T03:07:23.321Z,18.13
2022-08-23T03:12:31.157Z,18.47
2022-08-23T03:17:39.023Z,17.33
2022-08-23T03:22:48.335Z,17.70
2022-08-23T03:27:56.504Z,16.70
2022-08-23T03:33:04.563Z,15.37
2022-08-23T03:38:13.380Z,14.87
2022-08-23T03:43:22.072Z,14.43
2022-08-23T03:48:30.082Z,12.67
2022-08-23T03:53:37.966Z,13.53
2022-08-23T03:58:45.945Z,13.80
2022-08-23T04:03:54.022Z,13.40
2022-08-23T04:09:01.997Z,13.63
2022-08-23T04:14:09.898Z,15.70
2022-08-23T04:19:17.734Z,14.73
2022-08-23T04:24:25.596Z,16.83
2022-08-23T04:29:34.196Z,16.77
2022-08-23T04:34:45.600Z,16.73
2022-08-23T04:39:54.245Z,17.17
2022-08-23T04:45:02.361Z,16.30
2022-08-23T04:50:10.465Z,16.13
2022-08-23T04:55:18.464Z,16.57
2022-08-23T05:00:27.999Z,15.47
2022-08-23T05:05:35.947Z,14.40
2022-08-23T05:10:43.802Z,13.93
2022-08-23T05:15:53.004Z,13.33
2022-08-23T05:21:00.896Z,14.67
2022-08-23T05:26:10.258Z,14.87
2022-08-23T05:31:21.460Z,16.23
2022-08-23T05:36:29.314Z,18.07
2022-08-23T05:41:38.395Z,18.13
2022-08-23T05:46:46.490Z,18.47
2022-08-23T05:51:57.023Z,15.83
2022-08-23T05:57:04.984Z,18.30
2022-08-23T06:02:12.945Z,19.07
2022-08-23T06:07:20.869Z,18.10
2022-08-23T06:12:28.818Z,17.87
2022-08-23T06:17:36.709Z,20.37
2022-08-23T06:22:44.607Z,19.77
2022-08-23T06:27:52.998Z,23.53
2022-08-23T06:33:00.924Z,23.07
2022-08-23T06:38:09.077Z,19.97
2022-08-23T06:43:18.586Z,19.57
2022-08-23T06:48:26.526Z,20.40
2022-08-23T06:53:34.429Z,21.77
2022-08-23T06:58:42.718Z,18.77
2022-08-23T07:03:55.899Z,20.17
2022-08-23T07:09:04.236Z,19.70
2022-08-23T07:14:14.001Z,19.73
2022-08-23T07:19:28.844Z,19.27
2022-08-23T07:24:34.178Z,18.33
2022-08-23T07:29:43.271Z,19.17
2022-08-23T07:34:52.475Z,20.30
2022-08-23T07:40:00.527Z,17.47
2022-08-23T07:45:09.991Z,17.90
2022-08-23T07:50:18.279Z,18.73
2022-08-23T07:55:27.305Z,20.87
2022-08-23T08:00:35.259Z,20.37
2022-08-23T08:05:44.608Z,18.63
2022-08-23T08:10:55.673Z,19.50
2022-08-23T08:16:04.367Z,19.07
2022-08-23T08:21:15.678Z,18.20
2022-08-23T08:26:25.157Z,17.50
2022-08-23T08:31:33.212Z,15.17
2022-08-23T08:36:43.377Z,13.67
2022-08-23T08:42:04.812Z,12.20
2022-08-23T08:47:08.525Z,11.70
2022-08-23T08:52:19.115Z,11.33
2022-08-23T08:57:27.666Z,11.27
2022-08-23T09:02:36.547Z,11.00
2022-08-23T09:07:48.098Z,11.13
2022-08-23T09:12:59.151Z,11.07
2022-08-23T09:18:09.465Z,11.40
2022-08-23T09:23:20.187Z,9.43
2022-08-23T09:28:31.693Z,8.73
2022-08-23T09:33:41.873Z,9.33
2022-08-23T09:38:53.417Z,9.17
2022-08-23T09:44:02.787Z,8.33
2022-08-23T09:49:13.883Z,8.60
2022-08-23T09:59:38.296Z,8.13
2022-08-23T10:04:48.967Z,8.87
2022-08-23T10:09:58.841Z,7.47
2022-08-23T10:15:07.107Z,8.00
2022-08-23T10:20:19.277Z,8.00
2022-08-23T10:25:30.504Z,7.17
2022-08-23T10:30:41.627Z,6.33
2022-08-23T10:35:53.136Z,6.13
2022-08-23T10:41:04.472Z,6.93
2022-08-23T10:46:13.289Z,7.03
2022-08-23T10:51:32.002Z,6.47
2022-08-23T10:56:34.488Z,7.63
2022-08-23T11:01:45.673Z,7.70
2022-08-23T11:06:55.714Z,8.30
2022-08-23T11:12:11.007Z,8.73
2022-08-23T11:17:21.285Z,7.63
2022-08-23T11:22:33.069Z,7.40
2022-08-23T11:27:42.247Z,7.70
2022-08-23T11:32:50.166Z,8.53
2022-08-23T11:38:04.102Z,8.80
2022-08-23T11:43:13.361Z,8.37
2022-08-23T11:53:37.447Z,8.30
2022-08-23T11:58:49.813Z,8.53
2022-08-23T12:04:00.565Z,8.60
2022-08-23T12:09:12.573Z,8.93
2022-08-23T12:14:23.845Z,8.80
2022-08-23T12:19:39.967Z,8.93
2022-08-23T12:24:52.352Z,9.07
2022-08-23T12:30:00.987Z,9.13
2022-08-23T12:35:13.610Z,10.07
2022-08-23T12:40:25.108Z,10.23
2022-08-23T12:45:36.141Z,11.43
2022-08-23T12:50:45.914Z,8.80
2022-08-23T12:55:53.831Z,9.60
2022-08-23T13:01:04.099Z,9.70
2022-08-23T13:06:14.833Z,10.03
2022-08-23T13:11:24.449Z,8.40
2022-08-23T13:16:35.476Z,8.13
2022-08-23T13:21:43.373Z,7.40
2022-08-23T13:26:51.571Z,8.18
2022-08-23T13:32:03.606Z,7.67
2022-08-23T13:37:15.625Z,9.00
2022-08-23T13:42:26.698Z,10.13
2022-08-23T13:47:35.839Z,10.87
2022-08-23T13:53:11.454Z,11.63
2022-08-23T13:57:54.909Z,12.53
2022-08-23T14:03:03.335Z,13.20
2022-08-23T14:08:11.458Z,13.50
2022-08-23T14:13:19.352Z,15.20
2022-08-23T14:18:32.470Z,15.30
2022-08-23T14:23:48.011Z,16.97
2022-08-23T14:28:56.376Z,18.13
2022-08-23T14:34:04.399Z,20.03
2022-08-23T14:39:16.523Z,20.73
2022-08-23T14:44:22.363Z,18.13
2022-08-23T14:49:30.870Z,21.30
2022-08-23T14:54:39.545Z,19.27
2022-08-23T14:59:47.492Z,18.73
2022-08-23T15:04:56.074Z,19.10
2022-08-23T15:10:04.733Z,17.33
2022-08-23T15:15:15.197Z,18.63
2022-08-23T15:20:25.901Z,17.20
2022-08-23T15:25:35.465Z,17.40
2022-08-23T15:30:43.818Z,16.43
2022-08-23T15:35:52.566Z,15.30
2022-08-23T15:41:00.903Z,14.97
2022-08-23T15:46:11.105Z,14.83
2022-08-23T15:51:19.507Z,13.93
2022-08-23T15:56:31.357Z,15.37
2022-08-23T16:01:39.741Z,14.87
2022-08-23T16:06:47.883Z,15.73
2022-08-23T16:12:00.140Z,15.33
2022-08-23T16:17:07.349Z,14.83
2022-08-23T16:22:15.691Z,15.77
2022-08-23T16:27:23.786Z,16.50
2022-08-23T16:32:32.345Z,16.07
2022-08-23T16:37:40.421Z,16.87
2022-08-23T16:42:48.954Z,17.73
2022-08-23T16:47:57.078Z,17.70
2022-08-23T16:53:07.410Z,16.57
2022-08-23T16:58:16.408Z,16.57
2022-08-23T17:03:27.250Z,19.00
2022-08-23T17:08:34.226Z,16.77
2022-08-23T17:13:42.557Z,18.13
2022-08-23T17:18:50.963Z,19.30
2022-08-23T17:24:00.926Z,19.60
2022-08-23T17:29:09.930Z,18.37
2022-08-23T17:34:18.819Z,21.20
2022-08-23T17:39:29.441Z,20.50
2022-08-23T17:44:37.945Z,22.47
2022-08-23T17:49:46.507Z,22.63
2022-08-23T17:54:56.995Z,22.27
2022-08-23T18:00:07.570Z,21.97
2022-08-23T18:05:16.151Z,20.67
2022-08-23T18:10:25.873Z,19.23
2022-08-23T18:15:34.069Z,19.90
2022-08-23T18:20:42.441Z,19.17
2022-08-23T18:25:53.223Z,20.20
2022-08-23T18:31:03.950Z,20.03
2022-08-23T18:36:11.969Z,19.47
2022-08-23T18:41:22.412Z,18.87
2022-08-23T18:46:33.730Z,19.40
2022-08-23T18:51:42.088Z,18.77
2022-08-23T18:56:50.650Z,19.47
2022-08-23T19:01:58.831Z,21.60
2022-08-23T19:07:08.677Z,21.10
2022-08-23T19:12:17.647Z,20.57
2022-08-23T19:17:26.923Z,21.87
2022-08-23T19:22:34.927Z,20.40
2022-08-23T19:27:43.891Z,19.97
2022-08-23T19:32:51.870Z,20.07
2022-08-23T19:38:00.115Z,19.30
2022-08-23T19:43:08.217Z,22.27
2022-08-23T19:48:16.250Z,20.60
2022-08-23T19:53:24.382Z,23.37
2022-08-23T19:58:32.412Z,22.27
2022-08-23T20:03:40.503Z,24.03
2022-08-23T20:08:48.500Z,22.23
2022-08-23T20:13:56.929Z,21.77
2022-08-23T20:24:32.604Z,22.77
2022-08-23T20:29:29.262Z,24.13
2022-08-23T20:34:37.397Z,23.47
2022-08-23T20:39:45.614Z,22.77
2022-08-23T20:44:53.564Z,26.57
2022-08-23T20:50:01.669Z,25.27
2022-08-23T20:55:10.572Z,25.97
2022-08-23T21:00:19.281Z,25.23
2022-08-23T21:05:27.824Z,27.47
2022-08-23T21:10:36.583Z,24.37
2022-08-23T21:15:46.251Z,26.83
2022-08-23T21:20:56.046Z,28.50
2022-08-23T21:26:05.177Z,29.43
2022-08-23T21:31:17.887Z,27.83
2022-08-23T21:36:25.813Z,31.47
2022-08-23T21:41:37.839Z,29.83
2022-08-23T21:46:48.751Z,31.13
2022-08-23T21:51:56.743Z,33.20
2022-08-23T21:57:07.583Z,32.40
2022-08-23T22:02:16.632Z,35.57
2022-08-23T22:07:27.075Z,37.73
2022-08-23T22:12:34.958Z,35.30
2022-08-23T22:17:42.951Z,36.60
2022-08-23T22:22:50.852Z,37.57
2022-08-23T22:27:58.766Z,38.13
2022-08-23T22:33:06.674Z,40.67
2022-08-23T22:38:15.030Z,39.67
2022-08-23T22:43:23.288Z,38.93
2022-08-23T22:48:31.974Z,44.83
2022-08-23T22:53:41.613Z,39.07
2022-08-23T22:58:51.680Z,41.70
2022-08-23T23:04:00.247Z,42.57
2022-08-23T23:09:09.395Z,47.50
2022-08-23T23:14:18.085Z,47.20
2022-08-23T23:19:27.495Z,41.30
2022-08-23T23:24:37.258Z,48.87
2022-08-23T23:29:45.128Z,41.63
2022-08-23T23:34:54.488Z,39.73
2022-08-23T23:40:04.223Z,38.97
2022-08-23T23:45:12.580Z,36.10
2022-08-23T23:50:20.494Z,38.40
2022-08-23T23:55:28.428Z,37.57
